createdAt,value
2022-12-29T00:01:03.875Z,11.70
2022-12-29T00:03:31.328Z,11.70
2022-12-29T00:05:59.347Z,11.70
2022-12-29T00:08:40.826Z,11.70
2022-12-29T00:11:18.636Z,11.80
2022-12-29T00:14:04.431Z,11.70
2022-12-29T00:16:33.051Z,11.80
2022-12-29T00:19:00.419Z,11.80
2022-12-29T00:21:47.288Z,11.80
2022-12-29T00:24:27.884Z,12.00
2022-12-29T00:27:22.805Z,11.80
2022-12-29T00:30:08.839Z,11.90
2022-12-29T00:32:54.389Z,11.90
2022-12-29T00:35:30.674Z,11.80
2022-12-29T00:38:22.050Z,11.90
2022-12-29T00:41:08.726Z,11.90
2022-12-29T00:43:54.227Z,11.90
2022-12-29T00:46:21.506Z,12.00
2022-12-29T00:49:07.805Z,11.80
2022-12-29T00:51:34.677Z,12.00
2022-12-29T00:54:01.696Z,12.00
2022-12-29T00:56:28.730Z,12.10
2022-12-29T00:58:55.608Z,12.10
2022-12-29T01:01:22.902Z,12.30
2022-12-29T01:03:49.886Z,12.20
2022-12-29T01:06:17.059Z,12.20
2022-12-29T01:08:45.354Z,12.20
2022-12-29T01:11:14.291Z,12.20
2022-12-29T01:13:43.383Z,12.30
2022-12-29T01:16:11.909Z,12.30
2022-12-29T01:18:38.823Z,12.40
2022-12-29T01:21:07.589Z,12.10
2022-12-29T01:23:34.443Z,12.40
2022-12-29T01:26:13.728Z,12.40
2022-12-29T01:28:42.380Z,12.40
2022-12-29T01:31:10.951Z,12.60
2022-12-29T01:33:38.467Z,12.40
2022-12-29T01:36:09.327Z,12.30
2022-12-29T01:38:37.751Z,12.40
2022-12-29T01:41:06.699Z,12.30
2022-12-29T01:43:44.661Z,12.40
2022-12-29T01:46:51.968Z,12.40
2022-12-29T01:49:27.347Z,12.40
2022-12-29T01:52:03.902Z,12.70
2022-12-29T01:54:37.768Z,12.40
2022-12-29T01:57:08.851Z,12.40
2022-12-29T01:59:43.790Z,12.40
2022-12-29T02:02:12.017Z,12.30
2022-12-29T02:04:45.177Z,12.40
2022-12-29T02:07:21.638Z,12.30
2022-12-29T02:09:54.138Z,12.30
2022-12-29T02:12:24.160Z,12.20
2022-12-29T02:14:59.197Z,12.30
2022-12-29T02:18:04.490Z,12.20
2022-12-29T02:20:52.681Z,12.20
2022-12-29T02:24:08.233Z,12.20
2022-12-29T02:27:27.498Z,12.10
2022-12-29T02:30:19.124Z,12.10
2022-12-29T02:32:51.693Z,12.10
2022-12-29T02:35:37.129Z,12.10
2022-12-29T02:38:29.824Z,12.10
2022-12-29T02:41:20.992Z,12.10
2022-12-29T02:44:06.081Z,12.00
2022-12-29T02:47:01.005Z,12.10
2022-12-29T02:49:55.540Z,12.00
2022-12-29T02:52:33.443Z,12.10
2022-12-29T02:55:00.838Z,12.00
2022-12-29T02:57:27.615Z,12.10
2022-12-29T03:00:12.350Z,12.10
2022-12-29T03:03:00.501Z,12.10
2022-12-29T03:05:41.247Z,12.10
2022-12-29T03:08:21.687Z,12.20
2022-12-29T03:11:03.635Z,12.20
2022-12-29T03:14:04.517Z,12.20
2022-12-29T03:17:01.448Z,12.30
2022-12-29T03:19:48.824Z,12.30
2022-12-29T03:22:31.856Z,12.40
2022-12-29T03:25:11.363Z,12.40
2022-12-29T03:27:45.092Z,12.50
2022-12-29T03:30:14.401Z,12.50
2022-12-29T03:32:55.870Z,12.60
2022-12-29T03:35:30.408Z,12.60
2022-12-29T03:38:16.053Z,12.80
2022-12-29T03:40:51.186Z,12.70
2022-12-29T03:43:19.061Z,12.80
2022-12-29T03:45:47.684Z,12.80
2022-12-29T03:48:15.136Z,12.90
2022-12-29T03:50:43.550Z,12.90
2022-12-29T03:53:11.075Z,12.90
2022-12-29T03:55:39.297Z,13.00
2022-12-29T03:58:06.380Z,13.00
2022-12-29T04:00:48.399Z,13.00
2022-12-29T04:03:16.140Z,13.00
2022-12-29T04:05:45.569Z,13.10
2022-12-29T04:08:12.821Z,13.10
2022-12-29T04:10:39.904Z,13.20
2022-12-29T04:13:07.779Z,13.20
2022-12-29T04:15:35.716Z,13.20
2022-12-29T04:18:03.079Z,13.30
2022-12-29T04:20:48.500Z,13.30
2022-12-29T04:23:16.851Z,13.30
2022-12-29T04:25:49.563Z,13.40
2022-12-29T04:28:17.839Z,13.40
2022-12-29T04:30:57.682Z,13.40
2022-12-29T04:33:28.714Z,13.40
2022-12-29T04:35:56.297Z,13.60
2022-12-29T04:38:25.716Z,13.50
2022-12-29T04:40:53.258Z,13.40
2022-12-29T04:43:23.286Z,13.50
2022-12-29T04:46:05.175Z,13.50
2022-12-29T04:48:40.951Z,13.60
2022-12-29T04:51:26.264Z,13.60
2022-12-29T04:53:53.426Z,13.60
2022-12-29T04:56:20.731Z,13.50
2022-12-29T04:58:48.314Z,13.60
2022-12-29T05:01:15.658Z,13.60
2022-12-29T05:03:42.720Z,13.70
2022-12-29T05:06:09.920Z,13.60
2022-12-29T05:08:36.825Z,13.60
2022-12-29T05:11:04.237Z,13.80
2022-12-29T05:13:31.215Z,13.70
2022-12-29T05:15:58.560Z,13.70
2022-12-29T05:18:25.613Z,13.60
2022-12-29T05:20:52.666Z,13.70
2022-12-29T05:23:21.515Z,13.70
2022-12-29T05:25:55.627Z,13.70
2022-12-29T05:28:43.057Z,13.60
2022-12-29T05:31:13.673Z,13.80
2022-12-29T05:33:41.015Z,13.80
2022-12-29T05:36:10.563Z,13.80
2022-12-29T05:38:41.109Z,13.80
2022-12-29T05:41:08.139Z,13.80
2022-12-29T05:43:53.562Z,13.80
2022-12-29T05:46:40.969Z,13.80
2022-12-29T05:49:17.269Z,13.80
2022-12-29T05:52:02.268Z,13.90
2022-12-29T05:54:29.528Z,13.90
2022-12-29T05:56:57.111Z,14.00
2022-12-29T05:59:24.427Z,13.90
2022-12-29T06:01:53.026Z,13.90
2022-12-29T06:04:20.340Z,13.90
2022-12-29T06:06:48.177Z,14.10
2022-12-29T06:09:23.873Z,14.00
2022-12-29T06:11:50.905Z,14.00
2022-12-29T06:14:19.366Z,14.10
2022-12-29T06:16:46.260Z,14.10
2022-12-29T06:19:14.007Z,14.20
2022-12-29T06:21:41.374Z,14.30
2022-12-29T06:24:10.877Z,14.20
2022-12-29T06:26:38.512Z,14.20
2022-12-29T06:29:05.722Z,14.20
2022-12-29T06:31:33.437Z,14.30
2022-12-29T06:34:06.479Z,14.30
2022-12-29T06:36:35.742Z,14.30
2022-12-29T06:39:02.751Z,14.30
2022-12-29T06:41:32.318Z,14.30
2022-12-29T06:44:25.949Z,14.40
2022-12-29T06:46:58.282Z,14.60
2022-12-29T06:49:25.417Z,14.40
2022-12-29T06:51:52.291Z,14.40
2022-12-29T06:54:19.247Z,14.40
2022-12-29T06:56:46.175Z,14.70
2022-12-29T06:59:13.333Z,14.40
2022-12-29T07:01:40.476Z,14.50
2022-12-29T07:04:07.458Z,14.30
2022-12-29T07:06:34.713Z,14.50
2022-12-29T07:09:01.725Z,14.50
2022-12-29T07:11:28.815Z,14.50
2022-12-29T07:13:56.197Z,14.50
2022-12-29T07:16:24.150Z,14.50
2022-12-29T07:18:51.066Z,14.50
2022-12-29T07:21:19.251Z,14.40
2022-12-29T07:23:46.068Z,14.40
2022-12-29T07:26:18.896Z,14.40
2022-12-29T07:28:46.285Z,14.30
2022-12-29T07:31:19.559Z,14.30
2022-12-29T07:33:47.380Z,14.30
2022-12-29T07:36:15.879Z,14.30
2022-12-29T07:38:43.952Z,14.30
2022-12-29T07:41:11.206Z,14.30
2022-12-29T07:43:38.304Z,14.20
2022-12-29T07:46:53.910Z,14.30
2022-12-29T07:49:22.666Z,14.30
2022-12-29T07:51:49.596Z,14.30
2022-12-29T07:54:19.022Z,14.30
2022-12-29T07:56:46.927Z,14.30
2022-12-29T07:59:13.794Z,14.30
2022-12-29T08:01:41.070Z,14.30
2022-12-29T08:04:08.160Z,14.40
2022-12-29T08:06:35.725Z,14.50
2022-12-29T08:09:11.083Z,14.50
2022-12-29T08:11:41.917Z,14.50
2022-12-29T08:14:08.806Z,14.50
2022-12-29T08:16:36.474Z,14.80
2022-12-29T08:19:04.649Z,14.70
2022-12-29T08:21:32.524Z,14.70
2022-12-29T08:24:00.338Z,14.80
2022-12-29T08:26:27.505Z,14.80
2022-12-29T08:28:56.633Z,14.90
2022-12-29T08:31:24.924Z,14.90
2022-12-29T08:33:52.436Z,14.90
2022-12-29T08:36:19.751Z,15.00
2022-12-29T08:38:46.668Z,15.00
2022-12-29T08:41:13.831Z,15.10
2022-12-29T08:43:40.897Z,15.00
2022-12-29T08:46:07.821Z,15.00
2022-12-29T08:48:35.093Z,15.00
2022-12-29T08:51:02.118Z,15.10
2022-12-29T08:53:29.055Z,15.10
2022-12-29T08:56:05.081Z,15.20
2022-12-29T08:58:39.760Z,15.10
2022-12-29T09:01:10.943Z,15.00
2022-12-29T09:04:13.071Z,15.10
2022-12-29T09:06:25.136Z,15.20
2022-12-29T09:08:54.678Z,15.40
2022-12-29T09:11:25.001Z,15.60
2022-12-29T09:13:53.638Z,15.90
2022-12-29T09:16:24.416Z,15.90
2022-12-29T09:18:51.846Z,16.10
2022-12-29T09:21:19.232Z,16.20
2022-12-29T09:23:46.226Z,16.30
2022-12-29T09:26:13.139Z,16.60
2022-12-29T09:28:39.997Z,16.50
2022-12-29T09:31:07.240Z,16.70
2022-12-29T09:33:35.083Z,17.10
2022-12-29T09:36:02.969Z,17.40
2022-12-29T09:38:31.085Z,17.70
2022-12-29T09:41:09.564Z,17.90
2022-12-29T09:44:06.827Z,18.30
2022-12-29T09:46:38.097Z,18.40
2022-12-29T09:49:29.909Z,18.40
2022-12-29T09:52:05.312Z,18.40
2022-12-29T09:55:08.974Z,18.30
2022-12-29T09:58:01.877Z,18.30
2022-12-29T10:01:02.985Z,18.40
2022-12-29T10:03:49.334Z,18.50
2022-12-29T10:06:24.311Z,18.60
2022-12-29T10:09:40.050Z,18.70
2022-12-29T10:12:59.279Z,18.80
2022-12-29T10:15:51.558Z,18.90
2022-12-29T10:19:02.222Z,18.90
2022-12-29T10:22:35.607Z,19.00
2022-12-29T10:25:13.936Z,18.80
2022-12-29T10:27:42.489Z,18.80
2022-12-29T10:30:14.415Z,18.70
2022-12-29T10:32:56.485Z,18.60
2022-12-29T10:35:38.346Z,18.60
2022-12-29T10:38:42.289Z,18.50
2022-12-29T10:41:23.089Z,18.40
2022-12-29T10:43:55.882Z,18.30
2022-12-29T10:46:36.904Z,18.20
2022-12-29T10:49:06.185Z,18.40
2022-12-29T10:51:38.269Z,18.20
2022-12-29T10:54:33.959Z,18.30
2022-12-29T10:57:31.510Z,18.50
2022-12-29T10:59:58.750Z,18.60
2022-12-29T11:03:00.933Z,18.80
2022-12-29T11:05:50.571Z,18.90
2022-12-29T11:08:26.933Z,19.00
2022-12-29T11:11:06.963Z,18.90
2022-12-29T11:13:47.640Z,18.90
2022-12-29T11:16:14.766Z,18.80
2022-12-29T11:18:43.522Z,18.70
2022-12-29T11:21:42.853Z,18.80
2022-12-29T11:24:30.538Z,18.50
2022-12-29T11:27:17.987Z,18.40
2022-12-29T11:29:45.716Z,18.30
2022-12-29T11:32:29.235Z,18.20
2022-12-29T11:34:59.765Z,18.00
2022-12-29T11:37:32.698Z,17.90
2022-12-29T11:40:05.466Z,17.70
2022-12-29T11:42:40.609Z,17.70
2022-12-29T11:45:24.314Z,17.50
2022-12-29T11:47:57.718Z,17.50
2022-12-29T11:50:30.893Z,17.60
2022-12-29T11:53:06.473Z,17.20
2022-12-29T11:55:33.752Z,17.10
2022-12-29T11:58:05.201Z,16.90
2022-12-29T12:00:37.303Z,16.70
2022-12-29T12:03:23.479Z,16.60
2022-12-29T12:05:57.595Z,16.40
2022-12-29T12:08:48.659Z,16.20
2022-12-29T12:11:37.436Z,16.30
2022-12-29T12:14:32.287Z,15.90
2022-12-29T12:17:36.825Z,15.70
2022-12-29T12:20:44.419Z,15.50
2022-12-29T12:23:28.144Z,15.20
2022-12-29T12:26:12.697Z,15.00
2022-12-29T12:29:26.028Z,14.80
2022-12-29T12:32:15.031Z,14.60
2022-12-29T12:34:47.505Z,14.30
2022-12-29T12:38:19.835Z,14.20
2022-12-29T12:41:21.588Z,14.00
2022-12-29T12:44:10.401Z,13.90
2022-12-29T12:47:28.056Z,13.80
2022-12-29T12:50:20.130Z,13.60
2022-12-29T12:53:06.749Z,13.60
2022-12-29T12:56:12.297Z,13.50
2022-12-29T12:58:51.782Z,13.50
2022-12-29T13:01:39.955Z,13.40
2022-12-29T13:04:43.885Z,13.30
2022-12-29T13:07:41.051Z,13.30
2022-12-29T13:10:17.100Z,13.20
2022-12-29T13:13:11.009Z,13.20
2022-12-29T13:16:24.166Z,13.20
2022-12-29T13:19:02.434Z,13.30
2022-12-29T13:21:58.601Z,13.30
2022-12-29T13:25:18.003Z,13.30
2022-12-29T13:28:12.724Z,13.30
2022-12-29T13:31:21.681Z,13.40
2022-12-29T13:34:14.829Z,13.40
2022-12-29T13:36:50.565Z,13.50
2022-12-29T13:39:27.525Z,13.50
2022-12-29T13:41:56.729Z,13.50
2022-12-29T13:44:36.088Z,13.60
2022-12-29T13:47:28.625Z,13.40
2022-12-29T13:49:58.773Z,13.50
2022-12-29T13:52:48.965Z,13.50
2022-12-29T13:56:01.040Z,13.50
2022-12-29T13:58:40.109Z,13.50
2022-12-29T14:01:33.702Z,13.50
2022-12-29T14:04:04.265Z,13.50
2022-12-29T14:06:35.574Z,13.50
2022-12-29T14:09:06.671Z,13.50
2022-12-29T14:11:42.093Z,13.60
2022-12-29T14:14:31.300Z,13.50
2022-12-29T14:17:14.867Z,13.50
2022-12-29T14:19:45.825Z,13.50
2022-12-29T14:22:13.901Z,13.50
2022-12-29T14:24:47.254Z,13.40
2022-12-29T14:27:14.337Z,13.40
2022-12-29T14:29:41.241Z,13.40
2022-12-29T14:32:26.876Z,13.40
2022-12-29T14:35:38.642Z,13.40
2022-12-29T14:38:18.903Z,13.40
2022-12-29T14:40:48.014Z,13.40
2022-12-29T14:43:23.171Z,13.40
2022-12-29T14:46:03.812Z,13.60
2022-12-29T14:48:40.391Z,13.50
2022-12-29T14:51:30.911Z,13.40
2022-12-29T14:53:57.929Z,13.40
2022-12-29T14:56:32.747Z,13.40
2022-12-29T14:59:04.757Z,13.40
2022-12-29T15:01:50.110Z,13.30
2022-12-29T15:04:23.062Z,13.40
2022-12-29T15:06:51.868Z,13.30
2022-12-29T15:09:41.616Z,13.40
2022-12-29T15:12:21.006Z,13.20
2022-12-29T15:14:55.701Z,13.40
2022-12-29T15:17:30.102Z,13.30
2022-12-29T15:20:00.659Z,13.30
2022-12-29T15:22:28.406Z,13.30
2022-12-29T15:24:57.132Z,13.40
2022-12-29T15:27:26.842Z,13.30
2022-12-29T15:30:08.434Z,13.30
2022-12-29T15:32:45.099Z,13.30
2022-12-29T15:35:37.576Z,13.30
2022-12-29T15:38:37.079Z,13.30
2022-12-29T15:41:24.867Z,13.50
2022-12-29T15:44:18.511Z,13.30
2022-12-29T15:46:45.825Z,13.30
2022-12-29T15:49:16.068Z,13.30
2022-12-29T15:51:44.780Z,13.20
2022-12-29T15:54:19.764Z,13.50
2022-12-29T15:56:47.726Z,13.20
2022-12-29T15:59:30.459Z,13.20
2022-12-29T16:02:00.780Z,13.20
2022-12-29T16:04:31.358Z,13.40
2022-12-29T16:07:06.184Z,13.20
2022-12-29T16:09:36.110Z,13.20
2022-12-29T16:12:35.144Z,13.30
2022-12-29T16:15:09.212Z,13.20
2022-12-29T16:17:48.035Z,13.10
2022-12-29T16:20:40.937Z,13.20
2022-12-29T16:23:21.898Z,13.20
2022-12-29T16:25:49.009Z,13.20
2022-12-29T16:28:24.991Z,13.20
2022-12-29T16:31:06.537Z,13.20
2022-12-29T16:33:50.848Z,13.20
2022-12-29T16:36:29.944Z,13.30
2022-12-29T16:39:23.667Z,13.20
2022-12-29T16:41:51.714Z,13.30
2022-12-29T16:44:28.166Z,13.30
2022-12-29T16:47:13.322Z,13.30
2022-12-29T16:49:44.470Z,13.30
2022-12-29T16:52:22.469Z,13.30
2022-12-29T16:54:55.375Z,13.20
2022-12-29T16:57:29.896Z,13.30
2022-12-29T17:00:01.462Z,13.30
2022-12-29T17:02:32.531Z,13.30
2022-12-29T17:04:59.702Z,13.30
2022-12-29T17:07:28.703Z,13.20
2022-12-29T17:09:56.009Z,13.20
2022-12-29T17:12:31.226Z,13.20
2022-12-29T17:15:13.447Z,13.30
2022-12-29T17:17:41.915Z,13.20
2022-12-29T17:20:28.415Z,13.20
2022-12-29T17:22:57.040Z,13.20
2022-12-29T17:25:35.490Z,13.20
2022-12-29T17:28:22.943Z,13.10
2022-12-29T17:30:50.930Z,13.20
2022-12-29T17:33:20.309Z,13.20
2022-12-29T17:35:55.005Z,13.40
2022-12-29T17:38:26.267Z,13.20
2022-12-29T17:40:53.399Z,13.30
2022-12-29T17:43:20.694Z,13.30
2022-12-29T17:45:55.059Z,13.30
2022-12-29T17:48:22.725Z,13.40
2022-12-29T17:50:53.241Z,13.40
2022-12-29T17:53:24.757Z,13.40
2022-12-29T17:55:52.229Z,13.40
2022-12-29T17:58:25.946Z,13.50
2022-12-29T18:00:58.555Z,13.50
2022-12-29T18:03:33.702Z,13.50
2022-12-29T18:06:01.925Z,13.50
2022-12-29T18:08:29.384Z,13.60
2022-12-29T18:10:56.801Z,13.60
2022-12-29T18:13:39.314Z,13.60
2022-12-29T18:16:12.650Z,13.60
2022-12-29T18:18:39.665Z,13.60
2022-12-29T18:21:06.915Z,13.50
2022-12-29T18:23:37.525Z,13.70
2022-12-29T18:26:07.415Z,13.50
2022-12-29T18:28:34.390Z,13.50
2022-12-29T18:31:02.266Z,13.70
2022-12-29T18:33:29.922Z,13.40
2022-12-29T18:36:03.133Z,13.40
2022-12-29T18:38:30.711Z,13.40
2022-12-29T18:40:59.234Z,13.30
2022-12-29T18:43:26.171Z,13.30
2022-12-29T18:45:53.337Z,13.30
2022-12-29T18:48:21.531Z,13.30
2022-12-29T18:50:53.384Z,13.30
2022-12-29T18:53:23.956Z,13.20
2022-12-29T18:55:54.666Z,13.20
2022-12-29T18:58:21.600Z,13.30
2022-12-29T19:00:49.036Z,13.20
2022-12-29T19:03:18.917Z,13.20
2022-12-29T19:05:48.727Z,13.20
2022-12-29T19:08:16.047Z,13.20
2022-12-29T19:10:44.809Z,13.30
2022-12-29T19:13:19.697Z,13.20
2022-12-29T19:15:47.622Z,13.40
2022-12-29T19:21:09.833Z,13.30
2022-12-29T19:23:36.831Z,13.20
2022-12-29T19:26:03.880Z,13.30
2022-12-29T19:28:30.783Z,13.40
2022-12-29T19:31:02.974Z,13.10
2022-12-29T19:33:29.957Z,13.20
2022-12-29T19:36:02.131Z,13.20
2022-12-29T19:38:29.435Z,13.20
2022-12-29T19:40:56.802Z,13.20
2022-12-29T19:43:24.280Z,13.10
2022-12-29T19:45:52.805Z,13.20
2022-12-29T19:48:21.383Z,13.10
2022-12-29T19:50:48.652Z,13.10
2022-12-29T19:53:17.129Z,13.00
2022-12-29T19:55:46.903Z,13.00
2022-12-29T19:58:14.639Z,13.00
2022-12-29T20:00:43.706Z,13.10
2022-12-29T20:03:11.176Z,13.10
2022-12-29T20:05:39.414Z,13.10
2022-12-29T20:08:07.012Z,13.30
2022-12-29T20:10:34.267Z,13.20
2022-12-29T20:13:01.121Z,13.10
2022-12-29T20:15:28.484Z,13.10
2022-12-29T20:18:13.031Z,13.10
2022-12-29T20:20:41.417Z,13.20
2022-12-29T20:23:08.576Z,13.10
2022-12-29T20:25:50.904Z,13.20
2022-12-29T20:28:18.009Z,13.20
2022-12-29T20:30:44.925Z,13.20
2022-12-29T20:33:12.319Z,13.20
2022-12-29T20:35:39.283Z,13.20
2022-12-29T20:38:06.276Z,13.30
2022-12-29T20:40:33.355Z,13.30
2022-12-29T20:43:00.251Z,13.30
2022-12-29T20:45:27.480Z,13.30
2022-12-29T20:47:54.665Z,13.40
2022-12-29T20:50:21.810Z,13.70
2022-12-29T20:52:48.835Z,13.40
2022-12-29T20:55:15.845Z,13.40
2022-12-29T20:58:22.627Z,13.50
2022-12-29T21:00:31.588Z,13.50
2022-12-29T21:03:00.073Z,13.50
2022-12-29T21:05:28.861Z,13.50
2022-12-29T21:07:56.483Z,13.50
2022-12-29T21:10:23.419Z,13.50
2022-12-29T21:12:51.239Z,13.50
2022-12-29T21:15:18.251Z,13.60
2022-12-29T21:17:45.668Z,13.50
2022-12-29T21:20:20.223Z,13.60
2022-12-29T21:22:48.376Z,13.60
2022-12-29T21:25:15.797Z,13.80
2022-12-29T21:27:45.659Z,13.60
2022-12-29T21:30:14.898Z,13.60
2022-12-29T21:32:41.864Z,13.60
2022-12-29T21:35:10.020Z,13.60
2022-12-29T21:37:37.485Z,13.60
2022-12-29T21:40:06.095Z,13.60
2022-12-29T21:42:34.028Z,13.60
2022-12-29T21:45:21.097Z,13.60
2022-12-29T21:48:12.038Z,13.60
2022-12-29T21:50:59.724Z,13.70
2022-12-29T21:53:38.020Z,13.70
2022-12-29T21:56:05.169Z,13.70
2022-12-29T21:58:50.639Z,13.70
2022-12-29T22:01:36.960Z,13.70
2022-12-29T22:04:22.825Z,13.60
2022-12-29T22:07:08.394Z,13.60
2022-12-29T22:09:54.205Z,13.50
2022-12-29T22:12:39.733Z,13.50
2022-12-29T22:15:07.772Z,13.40
2022-12-29T22:17:37.621Z,13.30
2022-12-29T22:20:06.589Z,13.30
2022-12-29T22:22:33.488Z,13.20
2022-12-29T22:25:00.543Z,13.10
2022-12-29T22:27:27.485Z,13.10
2022-12-29T22:29:54.974Z,13.00
2022-12-29T22:32:22.030Z,13.00
2022-12-29T22:34:48.934Z,12.90
2022-12-29T22:37:16.958Z,12.70
2022-12-29T22:39:43.858Z,12.80
2022-12-29T22:42:11.008Z,12.70
2022-12-29T22:44:37.912Z,12.70
2022-12-29T22:47:04.945Z,12.60
2022-12-29T22:49:31.964Z,12.60
2022-12-29T22:51:58.983Z,12.60
2022-12-29T22:54:26.263Z,12.50
2022-12-29T22:56:53.213Z,12.50
2022-12-29T22:59:20.589Z,12.50
2022-12-29T23:01:48.093Z,12.40
2022-12-29T23:04:59.320Z,12.30
2022-12-29T23:07:04.842Z,12.30
2022-12-29T23:09:31.753Z,12.30
2022-12-29T23:11:58.990Z,12.20
2022-12-29T23:14:26.217Z,12.20
2022-12-29T23:16:53.169Z,12.30
2022-12-29T23:19:20.275Z,12.10
2022-12-29T23:21:47.136Z,12.10
2022-12-29T23:24:15.192Z,12.10
2022-12-29T23:26:46.858Z,12.10
2022-12-29T23:29:19.961Z,12.10
2022-12-29T23:31:47.774Z,12.10
2022-12-29T23:34:16.498Z,12.10
2022-12-29T23:36:44.955Z,12.10
2022-12-29T23:39:20.221Z,12.10
2022-12-29T23:41:47.708Z,12.10
2022-12-29T23:44:14.731Z,12.10
2022-12-29T23:46:42.197Z,12.10
2022-12-29T23:49:09.646Z,12.10
2022-12-29T23:51:37.115Z,12.10
2022-12-29T23:54:04.386Z,12.20
2022-12-29T23:56:32.252Z,12.10
2022-12-29T23:58:59.524Z,12.10
